createdAt,value
2019-02-21T04:43:55.326Z,0
2019-02-21T04:47:23.379Z,0
2019-02-21T04:50:54.164Z,0
2019-02-21T04:54:21.186Z,0
2019-02-21T04:57:49.121Z,0
2019-02-21T05:01:17.058Z,0
2019-02-21T05:04:44.987Z,0
2019-02-21T05:08:12.912Z,0
2019-02-21T05:11:41.830Z,0
2019-02-21T05:15:13.665Z,0
2019-02-21T05:18:40.668Z,0
2019-02-21T05:22:08.607Z,0
2019-02-21T05:25:36.598Z,0
2019-02-21T05:29:04.524Z,0
2019-02-21T05:32:40.770Z,0
2019-02-21T05:36:06.340Z,0
2019-02-21T05:39:34.278Z,0
2019-02-21T05:43:03.168Z,0
2019-02-21T05:46:31.104Z,0
2019-02-21T05:50:00.028Z,1
2019-02-21T05:53:28.934Z,1
2019-02-21T05:56:57.840Z,2
2019-02-21T06:00:25.778Z,2
2019-02-21T06:03:53.695Z,3
2019-02-21T06:07:21.628Z,7
2019-02-21T06:10:49.564Z,10
2019-02-21T06:14:17.504Z,12
2019-02-21T06:17:45.471Z,17
2019-02-21T06:21:14.376Z,23
2019-02-21T06:24:42.324Z,29
2019-02-21T06:28:10.245Z,34
2019-02-21T06:31:38.166Z,34
2019-02-21T06:35:06.120Z,50
2019-02-21T06:38:36.050Z,50
2019-02-21T06:42:04.014Z,63
2019-02-21T06:45:31.920Z,61
2019-02-21T06:48:59.872Z,82
2019-02-21T06:52:27.804Z,128
2019-02-21T06:55:56.709Z,221
2019-02-21T06:59:25.657Z,308
2019-02-21T07:02:54.618Z,298
2019-02-21T07:06:31.698Z,371
2019-02-21T07:09:57.425Z,292
2019-02-21T07:13:28.362Z,311
2019-02-21T07:16:56.332Z,423
2019-02-21T07:20:24.254Z,426
2019-02-21T07:23:52.180Z,327
2019-02-21T07:27:20.121Z,434
2019-02-21T07:30:48.032Z,417
2019-02-21T07:34:16.011Z,497
2019-02-21T07:37:44.927Z,500
2019-02-21T07:41:12.981Z,562
2019-02-21T07:44:41.805Z,644
2019-02-21T07:48:10.722Z,683
2019-02-21T07:51:41.193Z,755
2019-02-21T07:55:10.246Z,711
2019-02-21T07:58:39.526Z,1026
2019-02-21T08:02:06.469Z,1113
2019-02-21T08:05:34.404Z,1124
2019-02-21T08:09:02.320Z,1037
2019-02-21T08:12:30.266Z,1245
2019-02-21T08:15:58.217Z,1351
2019-02-21T08:19:26.180Z,1330
2019-02-21T08:22:54.128Z,1378
2019-02-21T08:26:23.063Z,1464
2019-02-21T08:29:50.998Z,1665
2019-02-21T08:33:19.908Z,1973
2019-02-21T08:36:47.871Z,1666
2019-02-21T08:40:15.824Z,2993
2019-02-21T08:43:43.774Z,2102
2019-02-21T08:47:11.727Z,1886
2019-02-21T08:50:39.654Z,1748
2019-02-21T08:54:08.576Z,1659
2019-02-21T08:57:37.531Z,1634
2019-02-21T09:01:05.487Z,1551
2019-02-21T09:04:33.425Z,1289
2019-02-21T09:08:01.380Z,1368
2019-02-21T09:11:29.332Z,1948
2019-02-21T09:14:57.265Z,2324
2019-02-21T09:18:25.290Z,2293
2019-02-21T09:21:54.158Z,1938
2019-02-21T09:25:22.119Z,1870
2019-02-21T09:28:50.109Z,1645
2019-02-21T09:32:18.011Z,3947
2019-02-21T09:35:46.000Z,4482
2019-02-21T09:39:15.915Z,3319
2019-02-21T09:42:42.844Z,3272
2019-02-21T09:46:10.806Z,3515
2019-02-21T09:49:38.736Z,2860
2019-02-21T09:53:07.680Z,1553
2019-02-21T09:56:35.623Z,1359
2019-02-21T10:00:04.537Z,1555
2019-02-21T10:03:32.512Z,1883
2019-02-21T10:07:00.471Z,2344
2019-02-21T10:10:28.375Z,3268
2019-02-21T10:13:56.334Z,3253
2019-02-21T10:17:24.299Z,2680
2019-02-21T10:20:52.207Z,3548
2019-02-21T10:24:20.157Z,2732
2019-02-21T10:27:48.126Z,2732
2019-02-21T10:31:16.079Z,1899
2019-02-21T10:34:45.007Z,1123
2019-02-21T10:38:12.961Z,826
2019-02-21T10:41:40.910Z,999
2019-02-21T10:45:08.826Z,1065
2019-02-21T10:48:36.809Z,982
2019-02-21T10:52:05.701Z,849
2019-02-21T10:55:33.645Z,950
2019-02-21T10:59:01.673Z,1280
2019-02-21T11:02:29.649Z,2055
2019-02-21T11:05:57.571Z,1662
2019-02-21T11:09:25.533Z,1453
2019-02-21T11:12:53.488Z,1318
2019-02-21T11:16:21.463Z,1049
2019-02-21T11:19:49.377Z,1315
2019-02-21T11:23:17.314Z,1001
2019-02-21T11:26:45.268Z,1442
2019-02-21T11:30:13.248Z,1420
2019-02-21T11:33:41.186Z,1150
2019-02-21T11:37:10.164Z,1010
2019-02-21T11:40:38.081Z,1015
2019-02-21T11:44:06.051Z,747
2019-02-21T11:47:34.023Z,1101
2019-02-21T11:51:01.964Z,1247
2019-02-21T11:54:30.913Z,1048
2019-02-21T11:57:59.860Z,1201
2019-02-21T12:01:27.899Z,1467
2019-02-21T12:04:56.880Z,1471
2019-02-21T12:08:24.827Z,1492
2019-02-21T12:11:53.783Z,1240
2019-02-21T12:15:21.748Z,1014
2019-02-21T12:18:49.734Z,1302
2019-02-21T12:22:17.657Z,1231
2019-02-21T12:25:45.615Z,984
2019-02-21T12:29:13.556Z,954
2019-02-21T12:32:42.504Z,925
2019-02-21T12:36:10.441Z,1014
2019-02-21T12:39:38.413Z,1206
2019-02-21T12:43:06.364Z,1132
2019-02-21T12:46:34.295Z,821
2019-02-21T12:50:02.247Z,1022
2019-02-21T12:53:31.174Z,888
2019-02-21T12:56:59.120Z,680
2019-02-21T13:00:27.083Z,1083
2019-02-21T13:03:55.052Z,1540
2019-02-21T13:07:22.997Z,1285
2019-02-21T13:10:50.895Z,1053
2019-02-21T13:14:18.843Z,715
2019-02-21T13:17:46.810Z,1435
2019-02-21T13:21:16.692Z,1577
2019-02-21T13:24:44.691Z,1761
2019-02-21T13:28:12.645Z,2835
2019-02-21T13:31:40.565Z,2406
2019-02-21T13:35:08.539Z,1931
2019-02-21T13:38:36.486Z,1850
2019-02-21T13:42:04.443Z,2125
2019-02-21T13:45:32.402Z,3399
2019-02-21T13:49:00.362Z,4149
2019-02-21T13:52:28.362Z,2514
2019-02-21T13:55:56.296Z,3095
2019-02-21T13:59:24.242Z,1541
2019-02-21T14:02:52.244Z,937
2019-02-21T14:06:21.175Z,816
2019-02-21T14:09:49.116Z,822
2019-02-21T14:13:18.069Z,567
2019-02-21T14:16:48.089Z,333
2019-02-21T14:20:17.025Z,569
2019-02-21T14:23:44.958Z,583
2019-02-21T14:27:12.894Z,340
2019-02-21T14:30:40.839Z,293
2019-02-21T14:34:08.769Z,313
2019-02-21T14:37:36.698Z,323
2019-02-21T14:41:04.648Z,258
2019-02-21T14:44:32.628Z,197
2019-02-21T14:48:00.575Z,178
2019-02-21T14:51:29.487Z,185
2019-02-21T14:54:57.469Z,180
2019-02-21T14:58:25.417Z,193
2019-02-21T15:01:53.421Z,235
2019-02-21T15:05:21.368Z,265
2019-02-21T15:08:50.322Z,201
2019-02-21T15:12:18.258Z,207
2019-02-21T15:15:46.217Z,189
2019-02-21T15:19:14.199Z,167
2019-02-21T15:22:43.116Z,169
2019-02-21T15:26:11.062Z,139
2019-02-21T15:29:42.002Z,113
2019-02-21T15:33:09.930Z,116
2019-02-21T15:36:40.876Z,105
2019-02-21T15:40:09.792Z,91
2019-02-21T15:43:37.728Z,74
2019-02-21T15:47:05.693Z,53
2019-02-21T15:50:34.595Z,42
2019-02-21T15:54:02.558Z,38
2019-02-21T15:57:31.088Z,28
2019-02-21T16:00:59.108Z,26
2019-02-21T16:04:27.076Z,23
2019-02-21T16:07:55.028Z,26
2019-02-21T16:11:23.612Z,26
2019-02-21T16:14:51.535Z,22
2019-02-21T16:18:19.511Z,16
2019-02-21T16:21:47.480Z,13
2019-02-21T16:25:15.375Z,12
2019-02-21T16:28:43.335Z,10
2019-02-21T16:32:11.366Z,7
2019-02-21T16:35:42.466Z,4
2019-02-21T16:39:10.933Z,2
2019-02-21T16:42:39.168Z,1
2019-02-21T16:46:09.048Z,0
2019-02-21T16:49:39.806Z,0
2019-02-21T16:53:09.839Z,0
2019-02-21T16:56:37.775Z,0
2019-02-21T17:00:05.741Z,0
2019-02-21T17:03:33.700Z,0
2019-02-21T17:07:01.704Z,0
2019-02-21T17:10:32.613Z,0
2019-02-21T17:14:00.635Z,0
2019-02-21T17:17:28.718Z,0
2019-02-21T17:20:56.760Z,0
2019-02-21T17:24:24.694Z,0
2019-02-21T17:27:52.678Z,0
2019-02-21T17:31:24.100Z,0
2019-02-21T17:34:53.181Z,0
2019-02-21T17:38:21.280Z,0
2019-02-21T17:41:50.360Z,0
2019-02-21T17:45:18.724Z,0
2019-02-21T17:48:47.739Z,0
2019-02-21T17:52:15.796Z,0
2019-02-21T17:55:43.841Z,0
2019-02-21T17:59:15.303Z,0
2019-02-21T18:02:43.315Z,0
2019-02-21T18:06:11.280Z,0
2019-02-21T18:09:39.261Z,0
2019-02-21T18:13:08.636Z,0
2019-02-21T18:16:37.600Z,0
2019-02-21T18:20:05.561Z,0
2019-02-21T18:23:33.548Z,0
2019-02-21T18:27:02.488Z,0
2019-02-21T18:30:30.933Z,0
2019-02-21T18:34:00.606Z,0
2019-02-21T18:37:29.748Z,0
2019-02-21T18:40:57.740Z,0
2019-02-21T18:44:25.778Z,0
2019-02-21T18:47:53.992Z,0
2019-02-21T18:51:22.052Z,0
2019-02-21T18:54:50.391Z,0
2019-02-21T18:58:20.471Z,0
2019-02-21T19:01:50.477Z,0
2019-02-21T19:05:19.421Z,0
2019-02-21T19:08:47.487Z,0
2019-02-21T19:12:15.491Z,0
2019-02-21T19:15:43.500Z,0
2019-02-21T19:19:11.463Z,0
2019-02-21T19:22:39.459Z,0
2019-02-21T19:26:09.362Z,0
2019-02-21T19:29:38.415Z,0
2019-02-21T19:33:07.196Z,0
2019-02-21T19:36:35.110Z,0
2019-02-21T19:40:04.193Z,0
2019-02-21T19:43:32.426Z,0
2019-02-21T19:47:00.438Z,0
2019-02-21T19:50:30.509Z,0
2019-02-21T19:53:58.581Z,0
2019-02-21T19:57:31.954Z,0
2019-02-21T20:01:01.049Z,0
2019-02-21T20:04:30.932Z,0
2019-02-21T20:08:08.406Z,0
2019-02-21T20:11:35.951Z,0
2019-02-21T20:15:03.354Z,0
2019-02-21T20:18:31.440Z,0
2019-02-21T20:22:01.154Z,0
2019-02-21T20:25:31.919Z,0
2019-02-21T20:29:00.057Z,0
2019-02-21T20:32:28.118Z,0
2019-02-21T20:35:56.182Z,0
2019-02-21T20:39:24.168Z,0
2019-02-21T20:42:52.272Z,0
2019-02-21T20:46:20.321Z,0
2019-02-21T20:49:48.412Z,0
2019-02-21T20:53:16.406Z,0
2019-02-21T20:56:44.939Z,0
2019-02-21T21:00:13.108Z,0
2019-02-21T21:03:41.370Z,0
2019-02-21T21:07:09.433Z,0
2019-02-21T21:10:38.452Z,0
2019-02-21T21:14:06.588Z,0
2019-02-21T21:17:35.705Z,0
2019-02-21T21:21:03.730Z,0
2019-02-21T21:24:31.816Z,0
2019-02-21T21:27:59.903Z,0
2019-02-21T21:31:28.112Z,0
2019-02-21T21:34:56.185Z,0
2019-02-21T21:38:26.234Z,0
2019-02-21T21:41:54.661Z,0
2019-02-21T21:45:22.712Z,0
2019-02-21T21:48:50.727Z,0
2019-02-21T21:52:19.710Z,0
2019-02-21T21:55:47.811Z,0
2019-02-21T21:59:15.834Z,0
2019-02-21T22:02:44.347Z,0
2019-02-21T22:06:12.328Z,0
2019-02-21T22:09:41.374Z,0
2019-02-21T22:13:09.411Z,0
2019-02-21T22:16:37.460Z,0
2019-02-21T22:20:06.492Z,0
2019-02-21T22:23:34.569Z,0
2019-02-21T22:27:02.588Z,0
2019-02-21T22:30:30.619Z,0
2019-02-21T22:33:58.697Z,0
2019-02-21T22:37:26.685Z,0
2019-02-21T22:40:54.714Z,0
2019-02-21T22:44:23.772Z,0
2019-02-21T22:47:51.767Z,0
2019-02-21T22:51:19.798Z,0
2019-02-21T22:54:47.849Z,0
2019-02-21T22:58:15.891Z,0
